createdAt,value
2023-02-07T00:01:21.214Z,25.23
2023-02-07T00:03:48.800Z,34.15
2023-02-07T00:06:25.654Z,26.10
2023-02-07T00:08:53.160Z,24.75
2023-02-07T00:11:21.473Z,24.80
2023-02-07T00:13:50.369Z,26.43
2023-02-07T00:16:17.273Z,30.42
2023-02-07T00:18:44.069Z,26.92
2023-02-07T00:21:14.142Z,26.45
2023-02-07T00:23:41.631Z,27.45
2023-02-07T00:26:09.182Z,27.10
2023-02-07T00:28:36.258Z,31.83
2023-02-07T00:31:07.630Z,23.75
2023-02-07T00:33:35.843Z,31.13
2023-02-07T00:36:05.578Z,35.88
2023-02-07T00:38:32.384Z,26.03
2023-02-07T00:41:01.336Z,32.55
2023-02-07T00:43:30.348Z,23.42
2023-02-07T00:46:03.384Z,21.67
2023-02-07T00:48:31.071Z,24.25
2023-02-07T00:50:58.418Z,26.67
2023-02-07T00:53:26.770Z,19.20
2023-02-07T00:55:53.844Z,25.73
2023-02-07T00:58:21.278Z,27.85
2023-02-07T01:00:48.151Z,26.08
2023-02-07T01:03:15.367Z,27.97
2023-02-07T01:05:42.427Z,30.85
2023-02-07T01:08:09.080Z,30.67
2023-02-07T01:10:38.784Z,27.30
2023-02-07T01:13:05.391Z,27.77
2023-02-07T01:15:32.079Z,36.20
2023-02-07T01:17:58.664Z,26.65
2023-02-07T01:20:25.219Z,29.77
2023-02-07T01:22:52.006Z,28.92
2023-02-07T01:25:18.716Z,33.50
2023-02-07T01:27:45.296Z,29.50
2023-02-07T01:30:12.525Z,28.95
2023-02-07T01:32:39.165Z,27.17
2023-02-07T01:35:06.172Z,29.30
2023-02-07T01:37:32.920Z,26.73
2023-02-07T01:39:59.619Z,32.10
2023-02-07T01:42:28.558Z,29.77
2023-02-07T01:44:55.081Z,23.40
2023-02-07T01:47:23.432Z,33.80
2023-02-07T01:49:52.929Z,28.87
2023-02-07T01:52:31.810Z,29.30
2023-02-07T01:55:02.480Z,30.77
2023-02-07T01:57:29.266Z,42.00
2023-02-07T01:59:58.075Z,24.80
2023-02-07T02:02:28.648Z,31.17
2023-02-07T02:04:55.692Z,32.90
2023-02-07T02:07:23.956Z,31.25
2023-02-07T02:09:50.607Z,28.15
2023-02-07T02:12:41.383Z,19.27
2023-02-07T02:15:23.832Z,30.87
2023-02-07T02:18:11.760Z,30.35
2023-02-07T02:20:58.535Z,26.13
2023-02-07T02:23:36.887Z,30.42
2023-02-07T02:26:25.166Z,39.33
2023-02-07T02:29:09.405Z,24.97
2023-02-07T02:32:23.778Z,30.48
2023-02-07T02:35:18.157Z,28.50
2023-02-07T02:37:53.031Z,26.13
2023-02-07T02:40:25.716Z,22.75
2023-02-07T02:43:16.996Z,41.37
2023-02-07T02:45:48.478Z,23.52
2023-02-07T02:48:16.291Z,33.63
2023-02-07T02:50:47.030Z,21.95
2023-02-07T02:53:14.329Z,29.60
2023-02-07T02:56:12.539Z,25.23
2023-02-07T02:59:16.796Z,25.92
2023-02-07T03:02:26.873Z,24.00
2023-02-07T03:05:02.073Z,21.25
2023-02-07T03:08:02.782Z,29.07
2023-02-07T03:10:44.458Z,35.00
2023-02-07T03:13:26.902Z,25.10
2023-02-07T03:16:19.459Z,28.63
2023-02-07T03:19:08.104Z,30.55
2023-02-07T03:21:54.243Z,28.17
2023-02-07T03:24:33.460Z,30.88
2023-02-07T03:27:06.834Z,27.15
2023-02-07T03:29:37.164Z,28.52
2023-02-07T03:32:07.311Z,30.88
2023-02-07T03:34:47.433Z,30.63
2023-02-07T03:37:28.222Z,27.40
2023-02-07T03:39:55.120Z,24.65
2023-02-07T03:42:39.947Z,41.22
2023-02-07T03:45:11.313Z,36.77
2023-02-07T03:47:37.888Z,30.92
2023-02-07T03:50:05.058Z,30.98
2023-02-07T03:52:31.673Z,28.77
2023-02-07T03:54:58.325Z,32.05
2023-02-07T03:57:24.998Z,22.77
2023-02-07T03:59:51.575Z,23.13
2023-02-07T04:02:18.507Z,25.50
2023-02-07T04:04:45.227Z,26.65
2023-02-07T04:07:12.564Z,34.73
2023-02-07T04:09:39.171Z,29.98
2023-02-07T04:12:05.926Z,22.23
2023-02-07T04:14:32.766Z,29.08
2023-02-07T04:16:59.474Z,29.13
2023-02-07T04:19:26.124Z,29.70
2023-02-07T04:21:52.749Z,25.45
2023-02-07T04:24:19.603Z,28.85
2023-02-07T04:26:46.261Z,34.97
2023-02-07T04:29:12.886Z,31.08
2023-02-07T04:31:40.291Z,22.83
2023-02-07T04:34:06.954Z,24.65
2023-02-07T04:36:33.651Z,28.70
2023-02-07T04:39:00.399Z,22.25
2023-02-07T04:41:27.202Z,26.73
2023-02-07T04:43:53.877Z,27.38
2023-02-07T04:46:20.528Z,32.17
2023-02-07T04:48:48.447Z,28.52
2023-02-07T04:51:15.862Z,34.25
2023-02-07T04:53:42.606Z,23.25
2023-02-07T04:56:09.290Z,37.13
2023-02-07T04:58:35.897Z,35.30
2023-02-07T05:01:02.517Z,26.88
2023-02-07T05:03:29.145Z,27.77
2023-02-07T05:05:55.755Z,27.30
2023-02-07T05:08:22.947Z,31.98
2023-02-07T05:10:54.673Z,29.67
2023-02-07T05:13:22.073Z,24.20
2023-02-07T05:15:48.805Z,28.88
2023-02-07T05:18:15.617Z,23.60
2023-02-07T05:20:42.373Z,22.73
2023-02-07T05:23:09.209Z,22.77
2023-02-07T05:25:36.090Z,21.80
2023-02-07T05:28:02.981Z,22.83
2023-02-07T05:30:29.850Z,26.85
2023-02-07T05:33:05.491Z,31.20
2023-02-07T05:35:41.200Z,25.35
2023-02-07T05:38:11.452Z,25.30
2023-02-07T05:40:39.600Z,27.20
2023-02-07T05:43:06.823Z,22.73
2023-02-07T05:45:33.987Z,25.55
2023-02-07T05:48:01.040Z,26.17
2023-02-07T05:50:28.470Z,22.55
2023-02-07T05:52:55.087Z,26.67
2023-02-07T05:55:21.717Z,32.70
2023-02-07T05:57:48.308Z,26.48
2023-02-07T06:00:18.700Z,19.67
2023-02-07T06:02:45.372Z,24.00
2023-02-07T06:05:14.528Z,22.02
2023-02-07T06:07:41.116Z,25.67
2023-02-07T06:10:08.505Z,27.10
2023-02-07T06:12:35.524Z,31.10
2023-02-07T06:15:02.382Z,26.55
2023-02-07T06:17:29.292Z,21.42
2023-02-07T06:19:55.970Z,22.70
2023-02-07T06:22:22.615Z,22.07
2023-02-07T06:24:49.226Z,23.00
2023-02-07T06:27:15.929Z,25.58
2023-02-07T06:29:42.602Z,26.30
2023-02-07T06:32:09.185Z,21.10
2023-02-07T06:34:35.755Z,25.30
2023-02-07T06:37:02.837Z,28.50
2023-02-07T06:39:29.471Z,26.30
2023-02-07T06:41:56.125Z,24.67
2023-02-07T06:44:22.737Z,33.58
2023-02-07T06:46:49.418Z,26.25
2023-02-07T06:49:17.475Z,37.38
2023-02-07T06:51:44.190Z,23.47
2023-02-07T06:54:10.970Z,24.58
2023-02-07T06:56:38.160Z,25.92
2023-02-07T06:59:04.818Z,28.45
2023-02-07T07:01:31.621Z,30.73
2023-02-07T07:03:58.517Z,28.52
2023-02-07T07:06:25.096Z,27.13
2023-02-07T07:08:51.895Z,29.83
2023-02-07T07:11:19.068Z,31.60
2023-02-07T07:13:45.851Z,26.58
2023-02-07T07:16:12.523Z,31.77
2023-02-07T07:18:39.179Z,35.03
2023-02-07T07:21:06.595Z,30.67
2023-02-07T07:23:33.485Z,30.13
2023-02-07T07:26:00.157Z,32.30
2023-02-07T07:28:26.775Z,26.00
2023-02-07T07:30:53.540Z,34.08
2023-02-07T07:33:20.256Z,31.73
2023-02-07T07:35:46.927Z,35.67
2023-02-07T07:38:13.600Z,26.33
2023-02-07T07:40:40.536Z,26.67
2023-02-07T07:43:07.416Z,26.20
2023-02-07T07:45:34.048Z,27.52
2023-02-07T07:48:00.829Z,31.85
2023-02-07T07:50:27.509Z,25.50
2023-02-07T07:52:54.156Z,32.27
2023-02-07T07:55:20.802Z,24.30
2023-02-07T07:57:47.412Z,22.48
2023-02-07T08:00:14.714Z,28.40
2023-02-07T08:02:42.231Z,25.27
2023-02-07T08:05:10.847Z,27.92
2023-02-07T08:07:39.245Z,26.67
2023-02-07T08:10:06.376Z,26.88
2023-02-07T08:12:32.997Z,21.70
2023-02-07T08:14:59.750Z,28.63
2023-02-07T08:17:26.404Z,24.45
2023-02-07T08:19:53.066Z,30.55
2023-02-07T08:22:19.968Z,24.58
2023-02-07T08:24:46.571Z,30.20
2023-02-07T08:27:13.213Z,28.85
2023-02-07T08:29:39.897Z,28.33
2023-02-07T08:32:06.684Z,30.88
2023-02-07T08:34:37.364Z,31.70
2023-02-07T08:37:05.794Z,31.77
2023-02-07T08:39:32.532Z,28.03
2023-02-07T08:41:59.214Z,29.05
2023-02-07T08:44:26.024Z,29.45
2023-02-07T08:46:52.596Z,41.85
2023-02-07T08:49:19.215Z,35.13
2023-02-07T08:51:45.989Z,34.33
2023-02-07T08:54:12.586Z,32.28
2023-02-07T08:56:39.169Z,33.60
2023-02-07T08:59:06.037Z,33.00
2023-02-07T09:01:33.063Z,30.07
2023-02-07T09:03:59.705Z,31.15
2023-02-07T09:06:27.143Z,29.55
2023-02-07T09:08:53.884Z,30.23
2023-02-07T09:11:20.772Z,29.58
2023-02-07T09:13:47.502Z,27.50
2023-02-07T09:16:14.853Z,29.50
2023-02-07T09:18:42.130Z,25.88
2023-02-07T09:21:08.772Z,25.25
2023-02-07T09:23:35.808Z,24.42
2023-02-07T09:26:05.153Z,25.03
2023-02-07T09:28:32.230Z,25.48
2023-02-07T09:30:58.999Z,24.58
2023-02-07T09:33:25.770Z,25.63
2023-02-07T09:35:54.601Z,22.92
2023-02-07T09:38:25.629Z,27.73
2023-02-07T09:40:53.561Z,24.17
2023-02-07T09:43:39.477Z,20.75
2023-02-07T09:46:19.318Z,21.27
2023-02-07T09:48:56.039Z,19.35
2023-02-07T09:51:24.132Z,20.20
2023-02-07T09:54:12.439Z,19.48
2023-02-07T09:56:40.604Z,20.95
2023-02-07T09:59:30.183Z,18.77
2023-02-07T10:02:03.776Z,19.15
2023-02-07T10:04:38.339Z,18.07
2023-02-07T10:07:07.696Z,17.65
2023-02-07T10:09:39.551Z,22.60
2023-02-07T10:12:17.804Z,16.02
2023-02-07T10:14:59.997Z,17.42
2023-02-07T10:17:45.293Z,17.73
2023-02-07T10:20:38.525Z,13.88
2023-02-07T10:23:24.297Z,14.63
2023-02-07T10:26:18.622Z,14.85
2023-02-07T10:29:13.108Z,14.93
2023-02-07T10:31:44.261Z,13.77
2023-02-07T10:34:21.256Z,12.70
2023-02-07T10:36:51.242Z,11.23
2023-02-07T10:39:37.686Z,11.43
2023-02-07T10:42:04.775Z,10.40
2023-02-07T10:44:31.729Z,10.93
2023-02-07T10:47:01.694Z,10.90
2023-02-07T10:49:35.916Z,8.70
2023-02-07T10:52:14.753Z,8.60
2023-02-07T10:54:52.112Z,11.05
2023-02-07T10:57:20.021Z,9.40
2023-02-07T10:59:47.543Z,10.02
2023-02-07T11:02:30.911Z,7.03
2023-02-07T11:05:24.162Z,9.18
2023-02-07T11:08:18.669Z,9.52
2023-02-07T11:10:48.401Z,8.53
2023-02-07T11:13:30.022Z,8.02
2023-02-07T11:15:57.048Z,9.70
2023-02-07T11:18:29.823Z,7.82
2023-02-07T11:20:56.681Z,8.07
2023-02-07T11:23:24.652Z,6.53
2023-02-07T11:25:55.089Z,8.45
2023-02-07T11:28:26.001Z,8.27
2023-02-07T11:30:56.477Z,8.43
2023-02-07T11:33:27.097Z,8.88
2023-02-07T11:36:04.599Z,7.63
2023-02-07T11:38:32.132Z,8.55
2023-02-07T11:41:06.743Z,9.40
2023-02-07T11:43:35.303Z,8.45
2023-02-07T11:46:09.231Z,8.50
2023-02-07T11:48:40.100Z,7.67
2023-02-07T11:51:09.633Z,8.98
2023-02-07T11:53:51.150Z,7.22
2023-02-07T11:56:33.398Z,7.30
2023-02-07T11:59:03.719Z,9.27
2023-02-07T12:01:33.618Z,6.73
2023-02-07T12:04:37.533Z,9.18
2023-02-07T12:07:25.637Z,7.50
2023-02-07T12:09:57.929Z,7.82
2023-02-07T12:12:58.731Z,6.45
2023-02-07T12:15:37.633Z,6.33
2023-02-07T12:18:18.494Z,7.35
2023-02-07T12:21:04.960Z,6.72
2023-02-07T12:23:42.727Z,7.68
2023-02-07T12:26:34.741Z,9.50
2023-02-07T12:29:15.704Z,7.50
2023-02-07T12:31:49.504Z,8.15
2023-02-07T12:34:45.028Z,8.00
2023-02-07T12:37:19.337Z,8.80
2023-02-07T12:39:58.104Z,8.32
2023-02-07T12:42:37.101Z,6.80
2023-02-07T12:45:05.420Z,7.72
2023-02-07T12:47:47.282Z,7.88
2023-02-07T12:50:27.615Z,7.43
2023-02-07T12:53:07.380Z,8.52
2023-02-07T12:55:40.165Z,7.80
2023-02-07T12:58:38.454Z,6.85
2023-02-07T13:01:23.032Z,8.57
2023-02-07T13:04:04.892Z,8.90
2023-02-07T13:07:16.815Z,8.13
2023-02-07T13:09:56.858Z,8.17
2023-02-07T13:12:38.228Z,7.47
2023-02-07T13:15:17.764Z,7.15
2023-02-07T13:17:49.557Z,6.10
2023-02-07T13:20:26.184Z,7.20
2023-02-07T13:23:00.546Z,10.00
2023-02-07T13:25:40.842Z,9.38
2023-02-07T13:28:18.410Z,8.38
2023-02-07T13:30:47.897Z,6.40
2023-02-07T13:33:34.079Z,7.72
2023-02-07T13:36:16.875Z,7.47
2023-02-07T13:38:44.209Z,9.73
2023-02-07T13:41:33.974Z,6.53
2023-02-07T13:44:09.887Z,6.47
2023-02-07T13:47:11.424Z,10.02
2023-02-07T13:49:55.648Z,6.40
2023-02-07T13:53:02.576Z,5.97
2023-02-07T13:55:32.310Z,6.47
2023-02-07T13:58:18.314Z,6.32
2023-02-07T14:00:47.624Z,5.60
2023-02-07T14:03:21.736Z,5.70
2023-02-07T14:05:48.417Z,6.50
2023-02-07T14:08:17.745Z,5.22
2023-02-07T14:10:51.639Z,6.10
2023-02-07T14:13:21.348Z,5.82
2023-02-07T14:15:48.517Z,7.50
2023-02-07T14:18:38.394Z,6.85
2023-02-07T14:21:21.390Z,6.78
2023-02-07T14:24:04.998Z,6.85
2023-02-07T14:26:40.783Z,9.25
2023-02-07T14:29:22.766Z,10.70
2023-02-07T14:32:00.881Z,6.95
2023-02-07T14:34:51.909Z,8.30
2023-02-07T14:37:39.876Z,8.95
2023-02-07T14:40:19.320Z,8.80
2023-02-07T14:42:58.456Z,9.13
2023-02-07T14:45:28.593Z,9.07
2023-02-07T14:47:55.434Z,7.75
2023-02-07T14:50:28.273Z,10.05
2023-02-07T14:52:55.917Z,9.27
2023-02-07T14:55:34.391Z,11.23
2023-02-07T14:58:06.848Z,11.60
2023-02-07T15:00:45.856Z,10.30
2023-02-07T15:03:16.397Z,11.88
2023-02-07T15:05:55.638Z,9.55
2023-02-07T15:08:25.005Z,10.37
2023-02-07T15:11:07.026Z,9.68
2023-02-07T15:13:41.937Z,10.40
2023-02-07T15:16:31.408Z,9.27
2023-02-07T15:19:00.267Z,10.73
2023-02-07T15:21:41.830Z,8.83
2023-02-07T15:24:22.145Z,9.73
2023-02-07T15:26:50.476Z,10.35
2023-02-07T15:29:25.368Z,9.10
2023-02-07T15:31:53.345Z,8.68
2023-02-07T15:34:23.316Z,9.27
2023-02-07T15:36:52.089Z,11.68
2023-02-07T15:39:23.002Z,8.63
2023-02-07T15:41:52.570Z,9.55
2023-02-07T15:44:28.172Z,8.90
2023-02-07T15:46:57.819Z,9.73
2023-02-07T15:49:31.965Z,13.10
2023-02-07T15:52:21.450Z,9.52
2023-02-07T15:54:51.849Z,9.38
2023-02-07T15:57:24.481Z,9.60
2023-02-07T15:59:53.206Z,8.93
2023-02-07T16:02:32.712Z,11.30
2023-02-07T16:05:08.192Z,14.75
2023-02-07T16:07:36.197Z,10.95
2023-02-07T16:10:39.474Z,8.43
2023-02-07T16:13:19.174Z,11.30
2023-02-07T16:15:56.990Z,9.73
2023-02-07T16:18:46.338Z,10.55
2023-02-07T16:21:25.350Z,13.07
2023-02-07T16:23:56.155Z,12.98
2023-02-07T16:26:27.701Z,10.43
2023-02-07T16:28:55.438Z,11.45
2023-02-07T16:31:22.384Z,11.45
2023-02-07T16:33:49.335Z,11.80
2023-02-07T16:36:18.332Z,11.18
2023-02-07T16:38:46.193Z,10.33
2023-02-07T16:41:31.939Z,10.35
2023-02-07T16:44:00.997Z,10.55
2023-02-07T16:46:28.019Z,10.10
2023-02-07T16:48:54.878Z,11.23
2023-02-07T16:51:21.449Z,13.20
2023-02-07T16:53:48.092Z,15.38
2023-02-07T16:56:26.691Z,10.93
2023-02-07T16:58:53.727Z,9.35
2023-02-07T17:01:22.284Z,11.18
2023-02-07T17:03:49.124Z,10.23
2023-02-07T17:06:20.976Z,10.50
2023-02-07T17:08:49.185Z,10.57
2023-02-07T17:11:25.065Z,10.75
2023-02-07T17:13:55.926Z,10.55
2023-02-07T17:16:23.958Z,12.20
2023-02-07T17:18:50.820Z,9.15
2023-02-07T17:21:18.158Z,10.07
2023-02-07T17:23:49.069Z,10.30
2023-02-07T17:26:25.095Z,11.18
2023-02-07T17:28:52.736Z,10.93
2023-02-07T17:31:19.716Z,11.95
2023-02-07T17:33:48.269Z,12.90
2023-02-07T17:36:16.182Z,12.45
2023-02-07T17:38:43.344Z,12.07
2023-02-07T17:41:14.274Z,12.47
2023-02-07T17:43:41.390Z,13.57
2023-02-07T17:46:27.576Z,13.57
2023-02-07T17:48:55.244Z,14.35
2023-02-07T17:51:24.214Z,12.75
2023-02-07T17:53:51.769Z,10.67
2023-02-07T17:56:26.092Z,12.02
2023-02-07T17:58:54.066Z,12.52
2023-02-07T18:01:21.564Z,13.38
2023-02-07T18:03:53.864Z,11.43
2023-02-07T18:06:26.139Z,11.37
2023-02-07T18:08:55.665Z,13.32
2023-02-07T18:11:22.997Z,12.52
2023-02-07T18:13:50.151Z,10.93
2023-02-07T18:16:21.852Z,12.25
2023-02-07T18:18:52.617Z,12.00
2023-02-07T18:21:19.257Z,18.33
2023-02-07T18:23:45.902Z,15.98
2023-02-07T18:26:14.973Z,14.55
2023-02-07T18:28:42.975Z,17.00
2023-02-07T18:31:12.202Z,13.67
2023-02-07T18:33:39.013Z,16.42
2023-02-07T18:36:06.513Z,19.83
2023-02-07T18:38:33.547Z,15.60
2023-02-07T18:41:00.169Z,14.48
2023-02-07T18:43:27.029Z,17.40
2023-02-07T18:45:54.192Z,15.02
2023-02-07T18:48:24.473Z,15.35
2023-02-07T18:50:52.296Z,14.73
2023-02-07T18:53:21.298Z,17.45
2023-02-07T18:55:50.176Z,17.23
2023-02-07T18:58:16.798Z,18.33
2023-02-07T19:00:43.429Z,15.13
2023-02-07T19:03:10.009Z,17.15
2023-02-07T19:05:36.669Z,20.05
2023-02-07T19:08:03.439Z,14.60
2023-02-07T19:10:30.267Z,14.05
2023-02-07T19:12:56.912Z,18.15
2023-02-07T19:15:23.602Z,17.13
2023-02-07T19:17:50.241Z,16.23
2023-02-07T19:20:16.968Z,14.50
2023-02-07T19:22:45.075Z,17.08
2023-02-07T19:25:13.155Z,15.40
2023-02-07T19:27:39.799Z,16.50
2023-02-07T19:30:07.974Z,16.48
2023-02-07T19:32:34.616Z,17.10
2023-02-07T19:35:01.436Z,17.98
2023-02-07T19:37:28.124Z,18.90
2023-02-07T19:39:56.141Z,17.48
2023-02-07T19:42:24.599Z,27.00
2023-02-07T19:44:51.266Z,17.48
2023-02-07T19:47:17.891Z,18.60
2023-02-07T19:49:45.164Z,17.85
2023-02-07T19:52:11.724Z,21.95
2023-02-07T19:54:38.328Z,18.90
2023-02-07T19:57:04.936Z,18.42
2023-02-07T19:59:31.520Z,25.67
2023-02-07T20:01:58.188Z,23.77
2023-02-07T20:04:24.826Z,21.93
2023-02-07T20:06:51.430Z,23.83
2023-02-07T20:09:18.125Z,21.95
2023-02-07T20:11:44.766Z,17.98
2023-02-07T20:14:11.457Z,16.10
2023-02-07T20:16:38.968Z,20.73
2023-02-07T20:19:07.367Z,23.20
2023-02-07T20:21:35.584Z,15.95
2023-02-07T20:24:02.440Z,20.80
2023-02-07T20:26:36.548Z,19.67
2023-02-07T20:29:05.816Z,21.77
2023-02-07T20:31:32.749Z,21.55
2023-02-07T20:33:59.824Z,21.58
2023-02-07T20:36:26.809Z,20.15
2023-02-07T20:38:55.991Z,22.85
2023-02-07T20:41:31.379Z,21.50
2023-02-07T20:44:08.068Z,18.48
2023-02-07T20:46:36.107Z,19.02
2023-02-07T20:49:16.588Z,19.73
2023-02-07T20:51:44.376Z,23.53
2023-02-07T20:54:12.395Z,23.13
2023-02-07T20:56:39.054Z,19.63
2023-02-07T20:59:06.886Z,20.13
2023-02-07T21:01:35.154Z,22.08
2023-02-07T21:04:05.063Z,17.17
2023-02-07T21:06:32.603Z,20.92
2023-02-07T21:09:01.656Z,21.90
2023-02-07T21:11:39.213Z,24.77
2023-02-07T21:14:16.485Z,21.20
2023-02-07T21:16:43.359Z,22.30
2023-02-07T21:19:10.762Z,17.13
2023-02-07T21:21:37.721Z,22.23
2023-02-07T21:24:04.628Z,19.67
2023-02-07T21:26:31.281Z,23.27
2023-02-07T21:29:02.747Z,21.13
2023-02-07T21:31:30.907Z,18.20
2023-02-07T21:33:57.835Z,18.33
2023-02-07T21:36:30.386Z,18.80
2023-02-07T21:38:59.268Z,19.17
2023-02-07T21:41:28.357Z,18.00
2023-02-07T21:43:55.979Z,20.50
2023-02-07T21:46:25.001Z,19.00
2023-02-07T21:48:57.171Z,20.65
2023-02-07T21:51:25.758Z,18.23
2023-02-07T21:53:54.294Z,20.73
2023-02-07T21:56:30.256Z,22.15
2023-02-07T21:59:02.008Z,24.75
2023-02-07T22:01:30.074Z,22.80
2023-02-07T22:03:59.242Z,20.65
2023-02-07T22:06:28.072Z,23.40
2023-02-07T22:08:57.018Z,27.50
2023-02-07T22:11:25.968Z,24.87
2023-02-07T22:13:53.480Z,27.13
2023-02-07T22:16:22.269Z,22.38
2023-02-07T22:18:49.409Z,25.98
2023-02-07T22:21:20.003Z,22.92
2023-02-07T22:23:46.771Z,23.02
2023-02-07T22:26:13.903Z,23.50
2023-02-07T22:28:42.040Z,21.48
2023-02-07T22:31:17.468Z,22.42
2023-02-07T22:33:44.066Z,21.87
2023-02-07T22:36:15.176Z,21.08
2023-02-07T22:38:41.982Z,19.92
2023-02-07T22:41:09.266Z,20.70
2023-02-07T22:43:36.658Z,21.57
2023-02-07T22:46:08.756Z,21.83
2023-02-07T22:48:35.862Z,22.73
2023-02-07T22:51:28.935Z,22.00
2023-02-07T22:53:59.212Z,20.83
2023-02-07T22:56:26.845Z,22.42
2023-02-07T22:58:54.275Z,20.63
2023-02-07T23:01:32.458Z,23.00
2023-02-07T23:03:59.269Z,20.17
2023-02-07T23:06:26.622Z,20.48
2023-02-07T23:08:54.282Z,22.10
2023-02-07T23:11:23.451Z,20.15
2023-02-07T23:13:51.153Z,21.58
2023-02-07T23:16:20.782Z,23.10
2023-02-07T23:18:48.443Z,25.15
2023-02-07T23:21:18.133Z,27.92
2023-02-07T23:23:45.524Z,26.30
2023-02-07T23:26:15.630Z,25.27
2023-02-07T23:28:42.569Z,25.92
2023-02-07T23:31:12.972Z,29.30
2023-02-07T23:33:39.886Z,27.73
2023-02-07T23:36:07.474Z,27.63
2023-02-07T23:38:34.776Z,22.95
2023-02-07T23:41:01.694Z,24.60
2023-02-07T23:43:28.304Z,25.85
2023-02-07T23:45:55.017Z,27.05
2023-02-07T23:48:21.943Z,31.27
2023-02-07T23:50:58.062Z,25.93
2023-02-07T23:53:25.441Z,26.58
2023-02-07T23:55:54.382Z,30.88
2023-02-07T23:58:21.705Z,27.67
